Time;durP1;ratioP1;P1;durP2;ratioP2;P2;SDS_P1;SDS_P2;PMS_P1;PMS_P2;Temp;Humidity;BMP_temperature;BMP_pressure;BME280_temperature;BME280_humidity;BME280_pressure;Samples;Min_cycle;Max_cycle;Signal;HPM_P1;HPM_P2
2021/04/19 00:00:20;;;;;;;24.10;13.63;;;;;;;;;;5070398;28;20041;-71
2021/04/19 00:02:46;;;;;;;23.23;13.57;;;;;;;;;;5074095;28;20045;-71
2021/04/19 00:05:15;;;;;;;20.95;14.02;;;;;;;;;;5067013;28;20113;-71
2021/04/19 00:07:41;;;;;;;23.83;11.77;;;;;;;;;;5075352;28;20392;-71
2021/04/19 00:10:08;;;;;;;23.63;12.65;;;;;;;;;;5071583;28;20032;-71
2021/04/19 00:12:34;;;;;;;21.65;12.90;;;;;;;;;;5071353;28;20052;-70
2021/04/19 00:15:01;;;;;;;19.25;11.95;;;;;;;;;;5073149;28;20045;-71
2021/04/19 00:17:29;;;;;;;21.40;13.52;;;;;;;;;;5070571;28;20055;-71
2021/04/19 00:19:55;;;;;;;24.55;13.05;;;;;;;;;;5074677;28;20066;-71
2021/04/19 00:22:22;;;;;;;19.65;12.65;;;;;;;;;;5070537;28;20045;-71
2021/04/19 00:24:48;;;;;;;20.40;11.30;;;;;;;;;;5073198;28;20048;-71
2021/04/19 00:27:14;;;;;;;18.65;11.70;;;;;;;;;;5069640;28;20037;-71
2021/04/19 00:29:40;;;;;;;23.52;12.23;;;;;;;;;;5073731;28;20121;-71
2021/04/19 00:32:07;;;;;;;20.17;11.65;;;;;;;;;;5069544;28;20052;-71
2021/04/19 00:34:33;;;;;;;21.20;12.57;;;;;;;;;;5066116;28;20036;-70
2021/04/19 00:36:59;;;;;;;19.85;12.20;;;;;;;;;;5069933;28;20322;-70
2021/04/19 00:39:25;;;;;;;21.27;12.80;;;;;;;;;;5064652;28;20067;-71
2021/04/19 00:41:52;;;;;;;20.42;12.57;;;;;;;;;;5057835;28;20048;-71
2021/04/19 00:44:18;;;;;;;20.58;13.23;;;;;;;;;;5063124;28;20055;-71
2021/04/19 00:46:47;;;;;;;22.20;13.07;;;;;;;;;;5062335;28;20568;-71
2021/04/19 00:49:14;;;;;;;18.60;12.05;;;;;;;;;;5063885;28;20033;-71
2021/04/19 00:51:40;;;;;;;22.08;11.35;;;;;;;;;;5061453;28;20110;-71
2021/04/19 00:54:07;;;;;;;26.27;12.57;;;;;;;;;;5061526;28;20549;-71
2021/04/19 00:56:33;;;;;;;22.35;12.18;;;;;;;;;;5061071;28;20045;-71
2021/04/19 00:58:59;;;;;;;23.52;12.25;;;;;;;;;;5063023;28;20044;-71
2021/04/19 01:01:30;;;;;;;22.00;12.27;;;;;;;;;;5063377;28;20143;-71
2021/04/19 01:03:56;;;;;;;19.33;11.30;;;;;;;;;;5065741;28;20082;-71
2021/04/19 01:06:23;;;;;;;19.42;11.95;;;;;;;;;;5069637;28;20046;-71
2021/04/19 01:08:49;;;;;;;18.95;11.60;;;;;;;;;;5067721;28;20047;-70
2021/04/19 01:11:15;;;;;;;16.33;10.10;;;;;;;;;;5066947;28;20067;-71
2021/04/19 01:13:41;;;;;;;18.60;10.73;;;;;;;;;;5062356;28;20037;-71
2021/04/19 01:16:07;;;;;;;16.48;9.68;;;;;;;;;;5064262;28;20048;-71
2021/04/19 01:18:34;;;;;;;19.73;10.32;;;;;;;;;;5062485;28;20062;-71
2021/04/19 01:21:00;;;;;;;19.23;10.55;;;;;;;;;;5065708;28;20103;-71
2021/04/19 01:23:27;;;;;;;15.70;10.00;;;;;;;;;;5063698;28;20063;-71
2021/04/19 01:25:53;;;;;;;18.45;10.90;;;;;;;;;;5063611;28;20053;-71
2021/04/19 01:28:21;;;;;;;21.88;10.75;;;;;;;;;;5060512;28;20036;-71
2021/04/19 01:30:49;;;;;;;17.20;9.85;;;;;;;;;;5067559;28;20072;-71
2021/04/19 01:33:15;;;;;;;17.90;10.25;;;;;;;;;;5057539;28;20127;-70
2021/04/19 01:35:42;;;;;;;18.50;10.95;;;;;;;;;;5058692;28;20073;-71
2021/04/19 01:38:10;;;;;;;19.67;9.25;;;;;;;;;;5058595;28;20144;-71
2021/04/19 01:40:36;;;;;;;18.10;10.13;;;;;;;;;;5063945;28;20477;-71
2021/04/19 01:43:03;;;;;;;19.27;10.57;;;;;;;;;;5063072;28;20123;-71
2021/04/19 01:45:29;;;;;;;17.35;10.32;;;;;;;;;;5063619;28;20040;-71
2021/04/19 01:47:56;;;;;;;16.85;8.45;;;;;;;;;;5064327;28;20049;-71
2021/04/19 01:50:23;;;;;;;16.88;9.63;;;;;;;;;;5064995;28;20064;-71
2021/04/19 01:52:50;;;;;;;16.92;10.73;;;;;;;;;;5065506;28;20351;-71
2021/04/19 01:55:18;;;;;;;16.70;10.10;;;;;;;;;;5056966;28;20041;-71
2021/04/19 01:57:46;;;;;;;15.95;9.45;;;;;;;;;;5058104;28;20185;-71
2021/04/19 02:00:12;;;;;;;20.27;11.95;;;;;;;;;;5065748;28;20047;-71
2021/04/19 02:02:44;;;;;;;19.27;10.73;;;;;;;;;;5065428;28;20066;-71
2021/04/19 02:05:15;;;;;;;21.35;11.63;;;;;;;;;;5066173;28;20090;-71
2021/04/19 02:07:50;;;;;;;26.23;12.20;;;;;;;;;;5065354;28;20056;-71
2021/04/19 02:10:17;;;;;;;21.05;11.93;;;;;;;;;;5061895;28;20515;-71
2021/04/19 02:12:46;;;;;;;25.92;12.20;;;;;;;;;;5057742;28;20353;-71
2021/04/19 02:15:20;;;;;;;21.65;12.88;;;;;;;;;;5064289;28;20344;-71
2021/04/19 02:17:56;;;;;;;28.58;13.35;;;;;;;;;;5064377;28;20124;-71
2021/04/19 02:20:37;;;;;;;24.55;14.18;;;;;;;;;;5062558;28;20044;-71
2021/04/19 02:23:07;;;;;;;25.75;13.27;;;;;;;;;;5063261;28;20401;-71
2021/04/19 02:25:37;;;;;;;26.92;13.70;;;;;;;;;;5066294;28;20128;-70
2021/04/19 02:28:05;;;;;;;25.20;14.18;;;;;;;;;;5060668;28;20049;-70
2021/04/19 02:30:36;;;;;;;24.60;14.75;;;;;;;;;;5063294;28;20489;-71
2021/04/19 02:33:03;;;;;;;29.17;16.00;;;;;;;;;;5064010;28;20044;-71
2021/04/19 02:35:31;;;;;;;26.17;15.10;;;;;;;;;;5064271;28;20037;-71
2021/04/19 02:37:57;;;;;;;29.77;17.48;;;;;;;;;;5065775;28;20098;-71
2021/04/19 02:40:24;;;;;;;32.80;18.25;;;;;;;;;;5064068;28;20033;-71
2021/04/19 02:42:52;;;;;;;30.75;17.50;;;;;;;;;;5052822;28;20036;-71
2021/04/19 02:45:21;;;;;;;31.88;17.73;;;;;;;;;;5056790;28;20052;-71
2021/04/19 02:47:47;;;;;;;34.13;18.73;;;;;;;;;;5063526;28;20516;-71
2021/04/19 02:50:15;;;;;;;36.13;19.92;;;;;;;;;;5045241;28;20041;-71
2021/04/19 02:52:42;;;;;;;32.85;19.42;;;;;;;;;;5065913;28;20119;-71
2021/04/19 02:55:09;;;;;;;34.13;20.25;;;;;;;;;;5064955;28;20117;-71
2021/04/19 02:57:41;;;;;;;32.95;21.55;;;;;;;;;;5060951;28;20436;-71
2021/04/19 03:00:08;;;;;;;43.85;20.27;;;;;;;;;;5057629;28;20117;-71
2021/04/19 03:02:35;;;;;;;37.40;21.38;;;;;;;;;;5056641;28;20049;-71
2021/04/19 03:05:02;;;;;;;38.08;20.95;;;;;;;;;;5060617;28;20041;-72
2021/04/19 03:07:33;;;;;;;33.42;20.33;;;;;;;;;;5064617;28;20399;-71
2021/04/19 03:10:01;;;;;;;34.97;22.20;;;;;;;;;;5066114;28;20040;-71
2021/04/19 03:12:30;;;;;;;41.03;22.92;;;;;;;;;;5062246;28;20040;-71
2021/04/19 03:14:59;;;;;;;35.70;22.67;;;;;;;;;;5063114;28;20395;-71
2021/04/19 03:17:27;;;;;;;40.05;23.38;;;;;;;;;;5054184;28;20160;-71
2021/04/19 03:19:59;;;;;;;42.03;24.05;;;;;;;;;;5063210;28;20348;-71
2021/04/19 03:22:27;;;;;;;37.78;23.88;;;;;;;;;;5050741;28;20037;-71
2021/04/19 03:24:54;;;;;;;38.05;24.10;;;;;;;;;;5058607;28;20093;-71
2021/04/19 03:27:23;;;;;;;41.20;25.25;;;;;;;;;;5058079;28;20472;-71
2021/04/19 03:29:49;;;;;;;40.03;24.35;;;;;;;;;;5065598;28;20072;-71
2021/04/19 03:32:18;;;;;;;44.13;24.95;;;;;;;;;;5065515;28;20507;-71
2021/04/19 03:34:45;;;;;;;43.80;25.45;;;;;;;;;;5065906;28;20427;-71
2021/04/19 03:37:17;;;;;;;41.92;25.23;;;;;;;;;;5060255;28;20037;-71
2021/04/19 03:39:47;;;;;;;46.50;25.85;;;;;;;;;;5064469;28;20384;-71
2021/04/19 03:42:14;;;;;;;43.85;24.92;;;;;;;;;;5059749;28;20053;-71
2021/04/19 03:44:41;;;;;;;41.63;24.98;;;;;;;;;;5061330;28;20045;-71
2021/04/19 03:47:08;;;;;;;43.28;26.42;;;;;;;;;;5055931;28;20134;-71
2021/04/19 03:49:37;;;;;;;43.83;23.77;;;;;;;;;;5054171;28;20044;-71
2021/04/19 03:52:06;;;;;;;37.00;23.27;;;;;;;;;;5060222;28;20041;-70
2021/04/19 03:54:33;;;;;;;40.05;23.65;;;;;;;;;;5066117;28;20044;-71
2021/04/19 03:57:02;;;;;;;42.38;25.15;;;;;;;;;;5065356;28;20131;-71
2021/04/19 03:59:29;;;;;;;39.70;23.20;;;;;;;;;;5064711;28;20163;-71
2021/04/19 04:01:58;;;;;;;35.88;22.58;;;;;;;;;;5068045;28;20051;-71
2021/04/19 04:04:25;;;;;;;34.88;23.30;;;;;;;;;;5061446;28;20135;-71
2021/04/19 04:06:51;;;;;;;48.97;25.63;;;;;;;;;;5059698;28;20467;-71
2021/04/19 04:09:18;;;;;;;46.47;26.83;;;;;;;;;;5060525;28;20584;-71
2021/04/19 04:11:44;;;;;;;47.03;26.70;;;;;;;;;;5061191;28;20396;-71
2021/04/19 04:14:10;;;;;;;47.05;26.50;;;;;;;;;;5063012;28;20045;-71
2021/04/19 04:16:40;;;;;;;49.20;27.25;;;;;;;;;;5058680;28;20059;-71
2021/04/19 04:19:07;;;;;;;44.83;26.85;;;;;;;;;;5056556;28;20044;-71
2021/04/19 04:21:34;;;;;;;50.60;25.35;;;;;;;;;;5062845;28;20484;-71
2021/04/19 04:24:01;;;;;;;46.38;27.80;;;;;;;;;;5060439;28;20052;-71
2021/04/19 04:26:27;;;;;;;40.70;23.92;;;;;;;;;;5063093;28;20044;-71
2021/04/19 04:28:54;;;;;;;40.17;25.40;;;;;;;;;;5067402;28;20055;-71
2021/04/19 04:31:20;;;;;;;41.50;25.42;;;;;;;;;;5062107;28;20174;-71
2021/04/19 04:33:47;;;;;;;45.55;25.88;;;;;;;;;;5066384;28;20037;-71
2021/04/19 04:36:13;;;;;;;43.65;24.80;;;;;;;;;;5067985;28;20488;-71
2021/04/19 04:38:39;;;;;;;44.15;25.27;;;;;;;;;;5073152;28;20092;-71
2021/04/19 04:41:06;;;;;;;46.60;27.17;;;;;;;;;;5065943;28;20049;-71
2021/04/19 04:43:35;;;;;;;49.38;27.63;;;;;;;;;;5065874;28;20045;-71
2021/04/19 04:46:21;;;;;;;46.83;27.10;;;;;;;;;;5060664;28;20524;-71
2021/04/19 04:48:53;;;;;;;50.05;27.85;;;;;;;;;;5064748;28;20067;-71
2021/04/19 04:51:21;;;;;;;53.00;26.83;;;;;;;;;;5068271;28;20064;-71
2021/04/19 04:53:52;;;;;;;41.55;25.38;;;;;;;;;;5057848;28;20079;-69
2021/04/19 04:56:19;;;;;;;48.67;28.08;;;;;;;;;;5064128;28;20500;-71
2021/04/19 04:58:46;;;;;;;48.17;29.90;;;;;;;;;;5056009;28;20040;-71
2021/04/19 05:01:12;;;;;;;58.83;31.80;;;;;;;;;;5062576;28;20051;-71
2021/04/19 05:03:40;;;;;;;53.28;30.60;;;;;;;;;;5061751;28;20428;-71
2021/04/19 05:06:07;;;;;;;55.63;32.40;;;;;;;;;;5065815;28;20424;-71
2021/04/19 05:08:40;;;;;;;59.75;34.33;;;;;;;;;;5064326;28;20150;-71
2021/04/19 05:11:06;;;;;;;56.95;31.30;;;;;;;;;;5068292;28;20102;-71
2021/04/19 05:13:32;;;;;;;54.90;31.70;;;;;;;;;;5062347;28;20032;-71
2021/04/19 05:15:59;;;;;;;55.03;31.13;;;;;;;;;;5058732;28;20046;-71
2021/04/19 05:18:25;;;;;;;60.15;32.30;;;;;;;;;;5060508;28;20040;-71
2021/04/19 05:20:51;;;;;;;51.65;31.52;;;;;;;;;;5060727;28;20068;-71
2021/04/19 05:23:17;;;;;;;61.28;32.60;;;;;;;;;;5064833;28;20108;-71
2021/04/19 05:25:45;;;;;;;57.35;32.47;;;;;;;;;;5067336;28;20048;-71
2021/04/19 05:28:12;;;;;;;51.65;31.67;;;;;;;;;;5066457;28;20120;-71
2021/04/19 05:30:39;;;;;;;53.03;32.67;;;;;;;;;;5065473;28;20037;-71
2021/04/19 05:33:06;;;;;;;53.60;31.10;;;;;;;;;;5059857;28;20103;-71
2021/04/19 05:35:33;;;;;;;56.90;32.70;;;;;;;;;;5064914;28;20127;-70
2021/04/19 05:38:00;;;;;;;53.58;32.17;;;;;;;;;;5065588;28;20052;-71
2021/04/19 05:40:27;;;;;;;49.78;29.98;;;;;;;;;;5067801;28;20143;-71
2021/04/19 05:42:53;;;;;;;57.17;31.67;;;;;;;;;;5063167;28;20112;-71
2021/04/19 05:45:20;;;;;;;53.00;30.42;;;;;;;;;;5063985;28;20484;-71
2021/04/19 05:47:47;;;;;;;56.63;31.27;;;;;;;;;;5065548;28;20132;-71
2021/04/19 05:50:15;;;;;;;50.53;32.03;;;;;;;;;;5061929;28;20511;-71
2021/04/19 05:52:42;;;;;;;55.40;30.98;;;;;;;;;;5062885;28;20051;-71
2021/04/19 05:55:09;;;;;;;52.80;31.25;;;;;;;;;;5062406;28;20511;-71
2021/04/19 05:57:37;;;;;;;51.83;30.33;;;;;;;;;;5062577;28;20047;-71
2021/04/19 06:00:08;;;;;;;58.13;31.83;;;;;;;;;;5064429;28;20047;-71
2021/04/19 06:02:42;;;;;;;47.22;29.23;;;;;;;;;;5067225;28;20056;-70
2021/04/19 06:05:10;;;;;;;51.55;29.92;;;;;;;;;;5065186;28;20580;-71
2021/04/19 06:07:45;;;;;;;53.10;30.70;;;;;;;;;;5068070;28;20461;-71
2021/04/19 06:10:15;;;;;;;52.42;29.90;;;;;;;;;;5069360;28;20036;-71
2021/04/19 06:12:45;;;;;;;48.90;27.70;;;;;;;;;;5061347;28;20063;-70
2021/04/19 06:15:13;;;;;;;43.65;25.58;;;;;;;;;;5060781;28;20094;-71
2021/04/19 06:17:43;;;;;;;44.20;25.75;;;;;;;;;;5059280;28;20052;-71
2021/04/19 06:20:10;;;;;;;40.50;24.02;;;;;;;;;;5057771;28;20104;-71
2021/04/19 06:22:36;;;;;;;35.25;20.70;;;;;;;;;;5057044;28;20504;-71
2021/04/19 06:25:03;;;;;;;35.17;19.70;;;;;;;;;;5061688;28;20048;-71
2021/04/19 06:27:29;;;;;;;32.60;20.75;;;;;;;;;;5058853;28;20091;-71
2021/04/19 06:29:55;;;;;;;31.23;18.80;;;;;;;;;;5065159;28;20037;-71
2021/04/19 06:32:23;;;;;;;32.88;19.55;;;;;;;;;;5058854;28;20040;-71
2021/04/19 06:34:49;;;;;;;32.20;18.10;;;;;;;;;;5062218;28;20056;-71
2021/04/19 06:37:17;;;;;;;25.77;17.27;;;;;;;;;;5062686;28;20101;-71
2021/04/19 06:39:44;;;;;;;29.67;16.20;;;;;;;;;;5064110;28;20484;-71
2021/04/19 06:42:12;;;;;;;27.90;16.25;;;;;;;;;;5063127;28;20067;-71
2021/04/19 06:44:38;;;;;;;29.15;16.15;;;;;;;;;;5064762;28;20114;-71
2021/04/19 06:47:05;;;;;;;33.80;16.67;;;;;;;;;;5065406;28;20101;-71
2021/04/19 06:49:32;;;;;;;29.77;15.65;;;;;;;;;;5068239;28;20045;-71
2021/04/19 06:51:58;;;;;;;26.77;15.70;;;;;;;;;;5067167;28;20056;-71
2021/04/19 06:54:25;;;;;;;24.67;14.45;;;;;;;;;;5060579;28;20055;-71
2021/04/19 06:56:51;;;;;;;24.00;14.57;;;;;;;;;;5058996;28;20114;-71
2021/04/19 06:59:19;;;;;;;25.83;14.20;;;;;;;;;;5058137;28;20032;-71
2021/04/19 07:01:50;;;;;;;25.42;15.05;;;;;;;;;;5056054;28;20075;-71
2021/04/19 07:04:19;;;;;;;21.48;13.63;;;;;;;;;;5055363;28;20048;-71
2021/04/19 07:06:46;;;;;;;29.63;15.23;;;;;;;;;;5058774;28;20131;-71
2021/04/19 07:09:15;;;;;;;24.73;14.30;;;;;;;;;;5058822;28;20112;-71
2021/04/19 07:11:42;;;;;;;24.50;13.82;;;;;;;;;;5066492;28;20393;-71
2021/04/19 07:14:08;;;;;;;19.55;12.40;;;;;;;;;;5069014;28;20377;-71
2021/04/19 07:16:35;;;;;;;23.48;13.80;;;;;;;;;;5067372;28;20400;-71
2021/04/19 07:19:02;;;;;;;21.83;13.35;;;;;;;;;;5070291;28;20173;-71
2021/04/19 07:21:28;;;;;;;24.02;13.13;;;;;;;;;;5065863;28;20124;-71
2021/04/19 07:23:55;;;;;;;21.67;12.75;;;;;;;;;;5069603;28;20045;-71
2021/04/19 07:26:21;;;;;;;22.23;12.60;;;;;;;;;;5069376;28;20051;-71
2021/04/19 07:28:48;;;;;;;22.40;12.43;;;;;;;;;;5069077;28;20102;-71
2021/04/19 07:31:14;;;;;;;20.15;12.35;;;;;;;;;;5069394;28;20254;-71
2021/04/19 07:33:41;;;;;;;21.75;12.25;;;;;;;;;;5067748;28;20143;-71
2021/04/19 07:36:21;;;;;;;23.65;12.27;;;;;;;;;;5065920;28;20198;-71
2021/04/19 07:38:47;;;;;;;21.77;12.70;;;;;;;;;;5069361;28;20049;-70
2021/04/19 07:41:14;;;;;;;21.75;12.80;;;;;;;;;;5075926;28;20059;-70
2021/04/19 07:43:41;;;;;;;23.45;12.48;;;;;;;;;;5070931;28;20048;-71
2021/04/19 07:46:10;;;;;;;18.83;12.40;;;;;;;;;;5068554;28;20503;-71
2021/04/19 07:48:39;;;;;;;20.17;12.30;;;;;;;;;;5071471;28;20463;-71
2021/04/19 07:51:22;;;;;;;19.77;11.35;;;;;;;;;;5067089;28;20055;-71
2021/04/19 07:53:48;;;;;;;18.10;11.57;;;;;;;;;;5065729;28;20049;-71
2021/04/19 07:56:16;;;;;;;18.55;10.73;;;;;;;;;;5070532;28;20126;-70
2021/04/19 07:58:42;;;;;;;18.73;12.63;;;;;;;;;;5072693;28;20055;-71
2021/04/19 08:01:08;;;;;;;23.17;12.25;;;;;;;;;;5072171;28;20047;-71
2021/04/19 08:03:38;;;;;;;21.85;11.88;;;;;;;;;;5069795;28;20044;-71
2021/04/19 08:06:16;;;;;;;17.85;10.50;;;;;;;;;;5072799;28;20127;-71
2021/04/19 08:08:43;;;;;;;22.08;12.15;;;;;;;;;;5071238;28;20044;-71
2021/04/19 08:11:10;;;;;;;19.13;10.73;;;;;;;;;;5069613;28;20100;-71
2021/04/19 08:13:37;;;;;;;18.38;11.30;;;;;;;;;;5077434;28;20082;-71
2021/04/19 08:16:13;;;;;;;19.05;11.80;;;;;;;;;;5073202;28;20412;-71
2021/04/19 08:18:39;;;;;;;18.45;11.18;;;;;;;;;;5070566;28;20073;-71
2021/04/19 08:21:06;;;;;;;14.02;10.90;;;;;;;;;;5073549;28;20116;-71
2021/04/19 08:23:40;;;;;;;16.45;10.52;;;;;;;;;;5071164;28;20472;-71
2021/04/19 08:26:07;;;;;;;19.20;10.18;;;;;;;;;;5072485;28;20041;-71
2021/04/19 08:28:42;;;;;;;22.02;11.80;;;;;;;;;;5071635;28;20132;-71
2021/04/19 08:31:09;;;;;;;17.10;10.38;;;;;;;;;;5073696;28;20047;-71
2021/04/19 08:33:36;;;;;;;19.63;11.32;;;;;;;;;;5071321;28;20078;-71
2021/04/19 08:36:03;;;;;;;23.80;12.35;;;;;;;;;;5070279;28;20048;-73
2021/04/19 08:38:31;;;;;;;16.35;12.32;;;;;;;;;;5072978;28;20051;-73
2021/04/19 08:40:58;;;;;;;20.63;12.60;;;;;;;;;;5069678;28;20040;-73
2021/04/19 08:43:25;;;;;;;21.45;12.50;;;;;;;;;;5069993;28;20366;-73
2021/04/19 08:45:51;;;;;;;21.00;11.65;;;;;;;;;;5079486;28;20111;-73
2021/04/19 08:48:18;;;;;;;18.23;11.18;;;;;;;;;;5092496;28;20048;-73
2021/04/19 08:50:46;;;;;;;19.50;11.88;;;;;;;;;;5072520;28;20032;-73
2021/04/19 08:53:13;;;;;;;19.08;11.73;;;;;;;;;;5062555;28;20048;-73
2021/04/19 08:55:41;;;;;;;19.55;11.85;;;;;;;;;;5072823;28;20052;-73
2021/04/19 08:58:09;;;;;;;17.50;11.63;;;;;;;;;;5073353;28;20492;-73
2021/04/19 09:00:37;;;;;;;20.45;11.57;;;;;;;;;;5071182;28;20123;-72
2021/04/19 09:03:03;;;;;;;20.13;12.02;;;;;;;;;;5070105;28;20430;-73
2021/04/19 09:05:30;;;;;;;19.50;11.93;;;;;;;;;;5070700;28;20044;-73
2021/04/19 09:08:04;;;;;;;21.58;11.60;;;;;;;;;;5074539;28;20028;-72
2021/04/19 09:10:30;;;;;;;;;;;;;;;;;;5071035;28;20036;-73
2021/04/19 09:12:56;;;;;;;16.35;10.65;;;;;;;;;;5072536;28;20030;-73
2021/04/19 09:15:29;;;;;;;16.50;10.57;;;;;;;;;;5069747;28;20151;-73
2021/04/19 09:18:09;;;;;;;15.82;10.15;;;;;;;;;;5070542;28;20102;-73
2021/04/19 09:20:47;;;;;;;14.07;10.30;;;;;;;;;;5070921;28;20035;-71
2021/04/19 09:23:21;;;;;;;17.40;11.75;;;;;;;;;;5071570;28;20075;-73
2021/04/19 09:25:47;;;;;;;18.92;11.18;;;;;;;;;;5069076;28;20080;-73
2021/04/19 09:28:14;;;;;;;19.17;12.35;;;;;;;;;;5070770;28;20064;-73
2021/04/19 09:30:45;;;;;;;16.95;11.13;;;;;;;;;;5069805;28;20052;-73
2021/04/19 09:33:19;;;;;;;16.13;10.55;;;;;;;;;;5070876;28;20048;-73
2021/04/19 09:35:49;;;;;;;18.65;11.13;;;;;;;;;;5069996;28;20041;-73
2021/04/19 09:38:41;;;;;;;18.83;11.75;;;;;;;;;;5070364;28;20045;-73
2021/04/19 09:41:09;;;;;;;19.90;11.80;;;;;;;;;;5067961;28;20037;-73
2021/04/19 09:43:37;;;;;;;14.35;11.25;;;;;;;;;;5068756;28;20163;-73
2021/04/19 09:46:07;;;;;;;15.82;11.43;;;;;;;;;;5069142;28;20115;-73
2021/04/19 09:48:35;;;;;;;16.83;10.52;;;;;;;;;;5069303;28;20131;-71
2021/04/19 09:51:03;;;;;;;16.20;11.48;;;;;;;;;;5071001;28;20758;-71
2021/04/19 09:53:30;;;;;;;20.60;11.23;;;;;;;;;;5068956;28;20029;-71
2021/04/19 09:55:57;;;;;;;16.75;11.82;;;;;;;;;;5072615;28;20159;-71
2021/04/19 09:58:24;;;;;;;15.40;11.52;;;;;;;;;;5067736;28;20044;-71
2021/04/19 10:00:57;;;;;;;15.82;11.68;;;;;;;;;;5069468;28;20383;-71
2021/04/19 10:03:24;;;;;;;16.60;11.70;;;;;;;;;;5070935;28;20083;-71
2021/04/19 10:05:52;;;;;;;14.90;11.27;;;;;;;;;;5068757;28;20380;-71
2021/04/19 10:08:19;;;;;;;17.08;12.27;;;;;;;;;;5068463;28;20104;-71
2021/04/19 10:10:50;;;;;;;12.32;10.65;;;;;;;;;;5059592;28;20054;-71
2021/04/19 10:13:25;;;;;;;17.13;10.93;;;;;;;;;;5059078;28;20163;-71
2021/04/19 10:16:00;;;;;;;12.52;10.75;;;;;;;;;;5060390;28;20048;-71
2021/04/19 10:18:30;;;;;;;12.38;9.98;;;;;;;;;;5059852;28;20091;-71
2021/04/19 10:20:56;;;;;;;16.20;10.68;;;;;;;;;;5060296;28;20067;-71
2021/04/19 10:23:31;;;;;;;14.88;11.73;;;;;;;;;;5056940;28;20064;-71
2021/04/19 10:25:57;;;;;;;14.57;10.85;;;;;;;;;;5059417;28;20509;-71
2021/04/19 10:28:32;;;;;;;14.32;10.52;;;;;;;;;;5057287;28;20432;-71
2021/04/19 10:31:10;;;;;;;13.60;9.65;;;;;;;;;;5061085;28;20072;-71
2021/04/19 10:33:36;;;;;;;18.75;9.38;;;;;;;;;;5056210;28;20037;-71
2021/04/19 10:36:10;;;;;;;11.90;8.88;;;;;;;;;;5064641;28;20040;-71
2021/04/19 10:38:38;;;;;;;15.00;9.40;;;;;;;;;;5063956;28;20027;-71
2021/04/19 10:41:04;;;;;;;12.40;9.65;;;;;;;;;;5060413;28;20044;-71
2021/04/19 10:43:30;;;;;;;13.65;8.98;;;;;;;;;;5058683;28;20457;-71
2021/04/19 10:45:56;;;;;;;12.68;9.70;;;;;;;;;;5057200;28;20135;-71
2021/04/19 10:48:24;;;;;;;16.35;9.27;;;;;;;;;;5059034;28;20060;-72
2021/04/19 10:50:51;;;;;;;12.38;10.48;;;;;;;;;;5058950;28;20083;-71
2021/04/19 10:53:31;;;;;;;14.65;10.20;;;;;;;;;;5063890;28;20549;-71
2021/04/19 10:55:58;;;;;;;15.30;10.18;;;;;;;;;;5069430;28;20048;-71
2021/04/19 10:58:25;;;;;;;11.93;9.80;;;;;;;;;;5064578;28;20040;-71
2021/04/19 11:00:51;;;;;;;15.73;10.13;;;;;;;;;;5070531;28;20119;-71
2021/04/19 11:03:18;;;;;;;12.27;9.70;;;;;;;;;;5065565;28;20045;-71
2021/04/19 11:05:44;;;;;;;14.30;10.88;;;;;;;;;;5065973;28;20526;-71
2021/04/19 11:08:10;;;;;;;14.13;10.30;;;;;;;;;;5067316;28;20040;-71
2021/04/19 11:10:37;;;;;;;12.60;10.13;;;;;;;;;;5058506;28;21864;-71
2021/04/19 11:13:05;;;;;;;16.10;10.25;;;;;;;;;;5068643;28;20116;-71
2021/04/19 11:15:33;;;;;;;16.02;9.55;;;;;;;;;;5065658;28;20400;-71
2021/04/19 11:18:00;;;;;;;12.70;8.50;;;;;;;;;;5069559;28;20036;-71
2021/04/19 11:20:28;;;;;;;14.70;10.27;;;;;;;;;;5067958;28;20048;-71
2021/04/19 11:22:54;;;;;;;16.00;10.60;;;;;;;;;;5066453;28;20048;-71
2021/04/19 11:25:28;;;;;;;13.63;10.32;;;;;;;;;;5070253;28;20353;-71
2021/04/19 11:28:14;;;;;;;11.82;8.70;;;;;;;;;;5069748;28;20047;-71
2021/04/19 11:30:41;;;;;;;12.75;9.38;;;;;;;;;;5073724;28;20049;-71
2021/04/19 11:33:08;;;;;;;14.25;9.15;;;;;;;;;;5065765;28;20036;-71
2021/04/19 11:35:38;;;;;;;15.55;8.38;;;;;;;;;;5061713;28;20049;-71
2021/04/19 11:38:06;;;;;;;12.27;8.90;;;;;;;;;;5065447;28;20074;-71
2021/04/19 11:40:35;;;;;;;12.13;9.13;;;;;;;;;;5064526;28;20045;-72
2021/04/19 11:43:18;;;;;;;11.32;8.85;;;;;;;;;;5056857;28;20045;-71
2021/04/19 11:45:44;;;;;;;;;;;;;;;;;;5061591;28;20060;-71
2021/04/19 11:48:13;;;;;;;9.73;7.47;;;;;;;;;;5063432;28;19920;-71
2021/04/19 11:50:40;;;;;;;14.75;9.15;;;;;;;;;;5058387;28;20075;-71
2021/04/19 11:53:06;;;;;;;22.35;9.43;;;;;;;;;;5066430;28;20048;-72
2021/04/19 11:55:33;;;;;;;13.60;10.07;;;;;;;;;;5061680;28;20388;-71
2021/04/19 11:57:59;;;;;;;13.02;10.10;;;;;;;;;;5065495;28;20094;-71
2021/04/19 12:00:27;;;;;;;14.10;8.75;;;;;;;;;;5061310;28;20120;-71
2021/04/19 12:02:53;;;;;;;14.82;8.90;;;;;;;;;;5060844;28;20037;-71
2021/04/19 12:05:20;;;;;;;18.20;11.15;;;;;;;;;;5056910;28;20504;-71
2021/04/19 12:07:47;;;;;;;12.68;9.90;;;;;;;;;;5062024;28;20492;-71
2021/04/19 12:10:13;;;;;;;12.98;10.50;;;;;;;;;;5057523;28;20385;-71
2021/04/19 12:12:39;;;;;;;15.00;10.30;;;;;;;;;;5065961;28;20143;-71
2021/04/19 12:15:06;;;;;;;16.05;11.38;;;;;;;;;;5061882;28;20181;-71
2021/04/19 12:17:32;;;;;;;13.88;9.90;;;;;;;;;;5065400;28;20040;-71
2021/04/19 12:19:59;;;;;;;13.70;9.85;;;;;;;;;;5060511;28;20121;-71
2021/04/19 12:22:25;;;;;;;11.57;8.30;;;;;;;;;;5060043;28;20040;-71
2021/04/19 12:24:52;;;;;;;15.02;8.45;;;;;;;;;;5065290;28;20102;-71
2021/04/19 12:27:18;;;;;;;11.45;7.30;;;;;;;;;;5061856;28;20053;-71
2021/04/19 12:29:44;;;;;;;11.50;7.63;;;;;;;;;;5066668;28;20040;-71
2021/04/19 12:32:10;;;;;;;12.88;9.35;;;;;;;;;;5065042;28;20071;-71
2021/04/19 12:34:37;;;;;;;12.18;9.10;;;;;;;;;;5055734;28;20511;-71
2021/04/19 12:37:03;;;;;;;13.05;10.13;;;;;;;;;;5067364;28;20044;-71
2021/04/19 12:39:29;;;;;;;12.55;9.98;;;;;;;;;;5062538;28;20036;-71
2021/04/19 12:41:56;;;;;;;14.50;10.68;;;;;;;;;;5062163;28;20105;-71
2021/04/19 12:44:24;;;;;;;11.38;7.85;;;;;;;;;;5063842;28;20045;-72
2021/04/19 12:46:51;;;;;;;14.57;8.88;;;;;;;;;;5062902;28;20542;-71
2021/04/19 12:49:19;;;;;;;14.55;10.00;;;;;;;;;;5068004;28;20037;-71
2021/04/19 12:51:46;;;;;;;12.27;9.25;;;;;;;;;;5055237;28;20101;-71
2021/04/19 12:54:13;;;;;;;12.43;9.52;;;;;;;;;;5062675;28;20029;-71
2021/04/19 12:56:39;;;;;;;11.85;9.35;;;;;;;;;;5059272;28;20049;-71
2021/04/19 12:59:05;;;;;;;15.77;9.48;;;;;;;;;;5063600;28;21036;-71
2021/04/19 13:01:32;;;;;;;10.98;8.52;;;;;;;;;;5064344;28;20052;-71
2021/04/19 13:03:58;;;;;;;13.50;8.73;;;;;;;;;;5062040;28;20067;-71
2021/04/19 13:06:24;;;;;;;12.77;9.05;;;;;;;;;;5066420;28;20055;-71
2021/04/19 13:08:50;;;;;;;13.73;9.48;;;;;;;;;;5067513;28;20048;-71
2021/04/19 13:11:17;;;;;;;17.10;11.00;;;;;;;;;;5072195;28;20042;-71
2021/04/19 13:13:43;;;;;;;14.07;8.98;;;;;;;;;;5064867;28;20123;-71
2021/04/19 13:16:09;;;;;;;13.85;9.63;;;;;;;;;;5064679;28;20761;-71
2021/04/19 13:18:36;;;;;;;16.98;10.98;;;;;;;;;;5067191;28;20052;-71
2021/04/19 13:21:04;;;;;;;14.38;11.00;;;;;;;;;;5065868;28;20048;-71
2021/04/19 13:23:30;;;;;;;14.98;11.05;;;;;;;;;;5069638;28;20125;-71
2021/04/19 13:25:57;;;;;;;15.40;11.65;;;;;;;;;;5060517;28;20498;-71
2021/04/19 13:28:23;;;;;;;14.95;12.30;;;;;;;;;;5061409;28;20068;-71
2021/04/19 13:30:50;;;;;;;16.30;11.35;;;;;;;;;;5070858;28;20037;-71
2021/04/19 13:33:16;;;;;;;15.10;10.73;;;;;;;;;;5069409;28;20070;-71
2021/04/19 13:35:42;;;;;;;16.02;11.50;;;;;;;;;;5068514;28;20369;-71
2021/04/19 13:38:09;;;;;;;17.77;12.40;;;;;;;;;;5067299;28;20059;-71
2021/04/19 13:40:36;;;;;;;15.90;12.07;;;;;;;;;;5065589;28;20671;-71
2021/04/19 13:43:03;;;;;;;17.27;12.32;;;;;;;;;;5057509;28;20048;-71
2021/04/19 13:45:30;;;;;;;19.15;12.13;;;;;;;;;;5061633;28;20066;-71
2021/04/19 13:47:56;;;;;;;17.45;12.65;;;;;;;;;;5060255;28;20053;-71
2021/04/19 13:50:23;;;;;;;14.15;11.45;;;;;;;;;;5053529;28;20447;-71
2021/04/19 13:52:49;;;;;;;15.95;11.70;;;;;;;;;;5060074;28;20043;-71
2021/04/19 13:55:16;;;;;;;15.82;11.20;;;;;;;;;;5057851;28;20068;-71
2021/04/19 13:57:43;;;;;;;17.30;11.45;;;;;;;;;;5056654;28;20127;-71
2021/04/19 14:00:10;;;;;;;13.27;10.55;;;;;;;;;;5056148;28;20071;-71
2021/04/19 14:02:36;;;;;;;14.15;10.77;;;;;;;;;;5055776;28;20118;-71
2021/04/19 14:05:03;;;;;;;16.38;11.18;;;;;;;;;;5061217;28;20037;-71
2021/04/19 14:07:29;;;;;;;16.27;11.35;;;;;;;;;;5063497;28;20455;-71
2021/04/19 14:09:56;;;;;;;15.13;11.88;;;;;;;;;;5053505;28;20044;-71
2021/04/19 14:12:23;;;;;;;12.52;11.23;;;;;;;;;;5051683;28;20492;-72
2021/04/19 14:14:50;;;;;;;14.68;11.70;;;;;;;;;;5060459;28;20139;-72
2021/04/19 14:17:16;;;;;;;13.35;11.43;;;;;;;;;;5069914;28;20115;-70
2021/04/19 14:19:42;;;;;;;13.90;11.00;;;;;;;;;;5065920;28;20040;-78
2021/04/19 14:22:09;;;;;;;15.85;11.32;;;;;;;;;;5057649;28;20086;-71